createdAt,value
2023-06-11T00:00:03.539Z,95742.81
2023-06-11T00:02:08.904Z,95728.50
2023-06-11T00:04:13.785Z,95730.44
2023-06-11T00:06:18.712Z,95731.19
2023-06-11T00:08:22.179Z,95730.06
2023-06-11T00:10:26.570Z,95669.34
2023-06-11T00:12:29.598Z,95676.94
2023-06-11T00:14:32.502Z,95734.22
2023-06-11T00:16:35.504Z,95739.44
2023-06-11T00:18:41.760Z,95703.59
2023-06-11T00:20:44.787Z,95744.97
2023-06-11T00:22:47.624Z,95739.72
2023-06-11T00:24:50.858Z,95740.66
2023-06-11T00:26:55.097Z,95742.41
2023-06-11T00:28:57.978Z,95683.53
2023-06-11T00:31:02.363Z,95651.69
2023-06-11T00:33:05.468Z,95685.88
2023-06-11T00:35:10.825Z,95722.88
2023-06-11T00:37:14.693Z,95734.78
2023-06-11T00:39:17.899Z,95734.75
2023-06-11T00:41:21.597Z,95704.25
2023-06-11T00:43:27.524Z,95739.53
2023-06-11T00:45:30.673Z,95714.09
2023-06-11T00:47:33.954Z,95681.88
2023-06-11T00:49:37.092Z,95685.03
2023-06-11T00:51:42.495Z,95678.19
2023-06-11T00:53:45.501Z,95741.66
2023-06-11T00:55:48.889Z,95704.63
2023-06-11T00:57:54.361Z,95740.81
2023-06-11T00:59:58.814Z,95730.53
2023-06-11T01:02:10.250Z,95742.16
2023-06-11T01:04:40.783Z,95743.97
2023-06-11T01:06:50.925Z,95691.50
2023-06-11T01:08:58.654Z,95741.50
2023-06-11T01:11:14.958Z,95740.84
2023-06-11T01:13:21.246Z,95687.13
2023-06-11T01:15:25.701Z,95669.09
2023-06-11T01:17:41.931Z,95698.72
2023-06-11T01:20:13.326Z,95699.91
2023-06-11T01:22:20.870Z,95675.41
2023-06-11T01:24:41.407Z,95698.63
2023-06-11T01:26:52.066Z,95655.41
2023-06-11T01:28:58.215Z,95720.66
2023-06-11T01:31:07.620Z,95730.13
2023-06-11T01:33:20.955Z,95672.53
2023-06-11T01:35:30.955Z,95705.00
2023-06-11T01:37:34.170Z,95648.97
2023-06-11T01:39:38.550Z,95715.38
2023-06-11T01:41:55.893Z,95717.00
2023-06-11T01:44:00.981Z,95688.81
2023-06-11T01:46:04.873Z,95693.91
2023-06-11T01:48:08.492Z,95723.25
2023-06-11T01:50:14.346Z,95624.13
2023-06-11T01:52:17.961Z,95677.88
2023-06-11T01:54:21.000Z,95712.09
2023-06-11T01:56:24.344Z,95727.25
2023-06-11T01:58:27.165Z,95727.78
2023-06-11T02:00:31.947Z,95732.94
2023-06-11T02:02:35.058Z,95729.88
2023-06-11T02:04:38.481Z,95707.47
2023-06-11T02:06:41.533Z,95680.09
2023-06-11T02:08:44.809Z,95734.88
2023-06-11T02:10:47.830Z,95734.94
2023-06-11T02:12:53.249Z,95734.63
2023-06-11T02:14:56.775Z,95728.34
2023-06-11T02:17:01.036Z,95715.34
2023-06-11T02:19:11.116Z,95730.25
2023-06-11T02:21:14.040Z,95681.78
2023-06-11T02:23:18.383Z,95690.78
2023-06-11T02:25:22.072Z,95705.53
2023-06-11T02:27:25.667Z,95714.31
2023-06-11T02:29:28.976Z,95688.09
2023-06-11T02:31:31.987Z,95681.53
2023-06-11T02:33:36.337Z,95671.00
2023-06-11T02:35:39.290Z,95679.75
2023-06-11T02:37:51.447Z,95742.19
2023-06-11T02:39:54.406Z,95671.16
2023-06-11T02:41:57.477Z,95696.69
2023-06-11T02:44:00.449Z,95720.25
2023-06-11T02:46:03.573Z,95698.31
2023-06-11T02:48:07.478Z,95727.00
2023-06-11T02:50:12.063Z,95740.28
2023-06-11T02:52:19.080Z,95725.00
2023-06-11T02:54:22.711Z,95683.34
2023-06-11T02:56:25.690Z,95707.94
2023-06-11T02:58:28.517Z,95750.03
2023-06-11T03:00:33.035Z,95721.28
2023-06-11T03:02:36.049Z,95744.31
2023-06-11T03:04:39.011Z,95760.94
2023-06-11T03:06:43.416Z,95753.81
2023-06-11T03:08:46.426Z,95768.78
2023-06-11T03:10:49.293Z,95766.88
2023-06-11T03:12:52.281Z,95757.53
2023-06-11T03:14:55.197Z,95760.88
2023-06-11T03:16:57.976Z,95727.53
2023-06-11T03:19:00.837Z,95765.81
2023-06-11T03:21:04.464Z,95762.72
2023-06-11T03:23:09.079Z,95742.31
2023-06-11T03:25:12.132Z,95759.16
2023-06-11T03:27:15.124Z,95765.25
2023-06-11T03:29:17.992Z,95727.44
2023-06-11T03:31:26.435Z,95764.03
2023-06-11T03:33:29.387Z,95765.13
2023-06-11T03:35:32.422Z,95759.50
2023-06-11T03:37:44.750Z,95751.50
2023-06-11T03:39:53.877Z,95754.72
2023-06-11T03:41:56.655Z,95763.31
2023-06-11T03:44:01.404Z,95760.25
2023-06-11T03:46:04.579Z,95769.94
2023-06-11T03:48:09.367Z,95762.25
2023-06-11T03:50:13.539Z,95747.63
2023-06-11T03:52:17.470Z,95768.63
2023-06-11T03:54:20.346Z,95780.38
2023-06-11T03:56:25.940Z,95769.19
2023-06-11T03:58:28.827Z,95778.19
2023-06-11T04:00:33.276Z,95775.09
2023-06-11T04:02:37.301Z,95768.50
2023-06-11T04:04:40.637Z,95776.31
2023-06-11T04:06:44.275Z,95776.22
2023-06-11T04:08:47.899Z,95778.88
2023-06-11T04:10:50.840Z,95778.28
2023-06-11T04:12:55.643Z,95781.75
2023-06-11T04:14:58.438Z,95780.28
2023-06-11T04:17:01.839Z,95783.19
2023-06-11T04:19:05.147Z,95746.41
2023-06-11T04:21:08.409Z,95761.50
2023-06-11T04:23:11.199Z,95788.22
2023-06-11T04:25:15.040Z,95790.44
2023-06-11T04:27:19.180Z,95803.38
2023-06-11T04:29:24.208Z,95796.19
2023-06-11T04:31:28.616Z,95797.78
2023-06-11T04:33:34.546Z,95781.31
2023-06-11T04:35:39.659Z,95805.59
2023-06-11T04:37:42.788Z,95794.94
2023-06-11T04:39:51.015Z,95798.00
2023-06-11T04:41:54.843Z,95807.53
2023-06-11T04:44:01.946Z,95814.75
2023-06-11T04:46:07.792Z,95795.44
2023-06-11T04:48:12.164Z,95825.25
2023-06-11T04:50:21.986Z,95817.06
2023-06-11T04:52:27.685Z,95806.88
2023-06-11T04:54:32.782Z,95781.63
2023-06-11T04:56:39.032Z,95805.94
2023-06-11T04:58:44.488Z,95813.13
2023-06-11T05:00:48.424Z,95811.84
2023-06-11T05:02:53.060Z,95816.88
2023-06-11T05:04:58.801Z,95783.19
2023-06-11T05:07:06.318Z,95815.53
2023-06-11T05:09:13.031Z,95714.69
2023-06-11T05:11:15.808Z,95807.72
2023-06-11T05:13:23.351Z,95814.38
2023-06-11T05:15:26.353Z,95816.97
2023-06-11T05:17:29.816Z,95813.88
2023-06-11T05:19:34.309Z,95817.13
2023-06-11T05:21:37.945Z,95827.06
2023-06-11T05:23:42.593Z,95830.75
2023-06-11T05:25:48.632Z,95831.25
2023-06-11T05:27:55.643Z,95836.88
2023-06-11T05:29:58.864Z,95795.59
2023-06-11T05:32:01.970Z,95814.13
2023-06-11T05:34:05.993Z,95831.88
2023-06-11T05:36:11.753Z,95828.47
2023-06-11T05:38:14.874Z,95830.47
2023-06-11T05:40:18.873Z,95829.00
2023-06-11T05:42:22.016Z,95829.94
2023-06-11T05:44:24.998Z,95831.78
2023-06-11T05:46:30.033Z,95842.00
2023-06-11T05:48:33.691Z,95829.03
2023-06-11T05:50:37.296Z,95836.75
2023-06-11T05:52:41.725Z,95824.19
2023-06-11T05:54:44.804Z,95833.50
2023-06-11T05:56:48.830Z,95838.25
2023-06-11T05:58:56.070Z,95801.38
2023-06-11T06:01:02.258Z,95828.41
2023-06-11T06:03:07.298Z,95831.41
2023-06-11T06:05:12.166Z,95793.19
2023-06-11T06:07:15.304Z,95836.59
2023-06-11T06:09:19.508Z,95834.91
2023-06-11T06:11:22.704Z,95833.78
2023-06-11T06:13:25.770Z,95839.28
2023-06-11T06:15:30.209Z,95844.91
2023-06-11T06:17:33.215Z,95838.97
2023-06-11T06:19:36.157Z,95818.50
2023-06-11T06:21:39.127Z,95847.91
2023-06-11T06:23:41.987Z,95851.13
2023-06-11T06:25:49.576Z,95849.19
2023-06-11T06:27:52.584Z,95855.34
2023-06-11T06:29:55.792Z,95854.06
2023-06-11T06:31:58.691Z,95839.44
2023-06-11T06:34:01.718Z,95833.28
2023-06-11T06:36:07.655Z,95853.69
2023-06-11T06:38:10.542Z,95857.53
2023-06-11T06:40:14.316Z,95862.03
2023-06-11T06:42:19.320Z,95853.91
2023-06-11T06:44:24.969Z,95854.47
2023-06-11T06:46:27.795Z,95857.19
2023-06-11T06:48:30.838Z,95860.59
2023-06-11T06:50:34.315Z,95855.03
2023-06-11T06:52:37.378Z,95842.44
2023-06-11T06:54:41.041Z,95842.16
2023-06-11T06:56:44.390Z,95842.75
2023-06-11T06:58:48.530Z,95845.31
2023-06-11T07:00:51.421Z,95853.19
2023-06-11T07:02:56.525Z,95858.28
2023-06-11T07:04:59.927Z,95837.09
2023-06-11T07:07:03.071Z,95854.81
2023-06-11T07:09:06.525Z,95847.03
2023-06-11T07:11:10.562Z,95864.94
2023-06-11T07:13:17.737Z,95859.44
2023-06-11T07:15:22.699Z,95846.63
2023-06-11T07:17:27.116Z,95862.53
2023-06-11T07:19:30.768Z,95845.97
2023-06-11T07:21:37.048Z,95864.63
2023-06-11T07:23:39.951Z,95859.50
2023-06-11T07:25:44.381Z,95858.84
2023-06-11T07:27:48.546Z,95850.94
2023-06-11T07:29:51.635Z,95837.47
2023-06-11T07:31:56.068Z,95857.53
2023-06-11T07:33:59.031Z,95867.44
2023-06-11T07:36:02.430Z,95873.28
2023-06-11T07:38:06.865Z,95873.63
2023-06-11T07:40:11.252Z,95877.09
2023-06-11T07:42:14.273Z,95868.03
2023-06-11T07:44:17.253Z,95875.22
2023-06-11T07:46:20.251Z,95876.81
2023-06-11T07:48:24.409Z,95878.31
2023-06-11T07:50:27.699Z,95870.75
2023-06-11T07:52:30.643Z,95868.28
2023-06-11T07:54:40.288Z,95867.22
2023-06-11T07:56:43.108Z,95862.16
2023-06-11T07:58:45.864Z,95867.56
2023-06-11T08:00:48.703Z,95866.38
2023-06-11T08:02:53.658Z,95860.63
2023-06-11T08:04:58.156Z,95858.19
2023-06-11T08:07:01.397Z,95842.66
2023-06-11T08:09:04.198Z,95855.41
2023-06-11T08:11:07.258Z,95848.78
2023-06-11T08:13:10.061Z,95861.63
2023-06-11T08:15:12.946Z,95862.06
2023-06-11T08:17:15.726Z,95849.50
2023-06-11T08:19:18.523Z,95858.91
2023-06-11T08:21:22.607Z,95859.66
2023-06-11T08:23:25.478Z,95855.09
2023-06-11T08:25:28.260Z,95851.88
2023-06-11T08:27:31.088Z,95849.59
2023-06-11T08:29:33.872Z,95850.66
2023-06-11T08:31:36.642Z,95847.69
2023-06-11T08:33:39.375Z,95856.59
2023-06-11T08:35:42.211Z,95853.72
2023-06-11T08:37:47.192Z,95854.94
2023-06-11T08:39:50.038Z,95853.28
2023-06-11T08:41:52.830Z,95855.66
2023-06-11T08:43:55.704Z,95852.13
2023-06-11T08:45:58.477Z,95849.72
2023-06-11T08:48:04.483Z,95857.53
2023-06-11T08:50:08.991Z,95842.59
2023-06-11T08:52:14.496Z,95848.75
2023-06-11T08:54:19.555Z,95856.09
2023-06-11T08:56:22.464Z,95855.03
2023-06-11T08:58:26.577Z,95850.88
2023-06-11T09:00:29.365Z,95855.56
2023-06-11T09:02:32.267Z,95850.47
2023-06-11T09:04:35.089Z,95846.38
2023-06-11T09:06:37.880Z,95854.31
2023-06-11T09:08:40.646Z,95853.91
2023-06-11T09:10:54.004Z,95847.41
2023-06-11T09:12:57.949Z,95849.09
2023-06-11T09:15:01.218Z,95852.53
2023-06-11T09:17:04.014Z,95853.59
2023-06-11T09:19:06.821Z,95851.56
2023-06-11T09:21:10.839Z,95852.47
2023-06-11T09:23:13.593Z,95858.28
2023-06-11T09:25:18.079Z,95851.25
2023-06-11T09:27:24.066Z,95847.38
2023-06-11T09:29:27.993Z,95848.78
2023-06-11T09:31:31.149Z,95849.13
2023-06-11T09:33:34.373Z,95847.59
2023-06-11T09:35:44.958Z,95846.69
2023-06-11T09:37:51.093Z,95848.72
2023-06-11T09:39:54.008Z,95854.88
2023-06-11T09:41:56.986Z,95856.41
2023-06-11T09:44:02.199Z,95846.53
2023-06-11T09:46:05.236Z,95854.31
2023-06-11T09:48:08.248Z,95849.94
2023-06-11T09:50:13.229Z,95851.78
2023-06-11T09:52:16.671Z,95861.44
2023-06-11T09:54:22.250Z,95853.50
2023-06-11T09:56:25.846Z,95854.19
2023-06-11T09:58:30.475Z,95857.66
2023-06-11T10:00:36.493Z,95857.78
2023-06-11T10:02:40.369Z,95851.94
2023-06-11T10:04:43.443Z,95857.06
2023-06-11T10:06:50.580Z,95851.97
2023-06-11T10:08:55.432Z,95849.25
2023-06-11T10:11:00.369Z,95849.78
2023-06-11T10:13:03.798Z,95855.16
2023-06-11T10:15:12.752Z,95850.72
2023-06-11T10:17:17.200Z,95856.56
2023-06-11T10:19:20.465Z,95845.47
2023-06-11T10:21:23.245Z,95846.00
2023-06-11T10:23:36.522Z,95846.38
2023-06-11T10:25:40.832Z,95840.72
2023-06-11T10:27:44.776Z,95847.59
2023-06-11T10:29:49.160Z,95848.78
2023-06-11T10:31:58.376Z,95852.13
2023-06-11T10:34:06.806Z,95846.88
2023-06-11T10:36:09.740Z,95847.56
2023-06-11T10:38:16.228Z,95842.69
2023-06-11T10:40:20.842Z,95842.41
2023-06-11T10:42:24.948Z,95841.91
2023-06-11T10:44:27.929Z,95840.19
2023-06-11T10:46:30.788Z,95851.34
2023-06-11T10:48:33.784Z,95849.31
2023-06-11T10:50:37.990Z,95850.72
2023-06-11T10:52:51.110Z,95851.25
2023-06-11T10:54:54.187Z,95849.19
2023-06-11T10:56:57.017Z,95849.22
2023-06-11T10:59:00.179Z,95844.78
2023-06-11T11:01:05.421Z,95829.91
2023-06-11T11:03:10.199Z,95848.31
2023-06-11T11:05:13.580Z,95845.00
2023-06-11T11:07:18.391Z,95850.47
2023-06-11T11:09:23.034Z,95848.56
2023-06-11T11:11:27.697Z,95843.63
2023-06-11T11:13:31.165Z,95843.41
2023-06-11T11:15:34.014Z,95843.66
2023-06-11T11:17:36.988Z,95838.22
2023-06-11T11:19:42.891Z,95846.16
2023-06-11T11:21:52.698Z,95847.34
2023-06-11T11:23:57.052Z,95850.00
2023-06-11T11:26:00.222Z,95831.28
2023-06-11T11:28:03.067Z,95828.34
2023-06-11T11:30:07.244Z,95835.53
2023-06-11T11:32:10.313Z,95831.56
2023-06-11T11:34:13.780Z,95821.34
2023-06-11T11:36:16.574Z,95829.69
2023-06-11T11:38:19.713Z,95820.25
2023-06-11T11:40:24.492Z,95823.81
2023-06-11T11:42:27.462Z,95819.06
2023-06-11T11:44:40.302Z,95826.31
2023-06-11T11:46:43.263Z,95827.19
2023-06-11T11:48:46.263Z,95828.00
2023-06-11T11:50:50.509Z,95829.59
2023-06-11T11:53:05.128Z,95822.06
2023-06-11T11:55:08.890Z,95822.44
2023-06-11T11:57:13.348Z,95832.00
2023-06-11T11:59:20.086Z,95814.09
2023-06-11T12:01:27.601Z,95817.72
2023-06-11T12:03:31.092Z,95811.31
2023-06-11T12:05:34.000Z,95810.53
2023-06-11T12:07:36.735Z,95807.28
2023-06-11T12:09:40.507Z,95801.34
2023-06-11T12:11:52.180Z,95793.41
2023-06-11T12:14:04.425Z,95797.75
2023-06-11T12:16:07.317Z,95784.09
2023-06-11T12:18:10.061Z,95790.84
2023-06-11T12:20:13.861Z,95789.69
2023-06-11T12:22:16.905Z,95790.69
2023-06-11T12:24:19.755Z,95788.06
2023-06-11T12:26:22.658Z,95782.88
2023-06-11T12:28:25.398Z,95784.03
2023-06-11T12:30:32.110Z,95781.06
2023-06-11T12:32:35.292Z,95790.28
2023-06-11T12:34:38.022Z,95776.81
2023-06-11T12:36:40.872Z,95778.28
2023-06-11T12:38:43.551Z,95775.16
2023-06-11T12:40:46.282Z,95772.94
2023-06-11T12:42:49.643Z,95774.91
2023-06-11T12:44:52.373Z,95773.34
2023-06-11T12:46:56.384Z,95768.66
2023-06-11T12:48:59.175Z,95768.31
2023-06-11T12:51:01.867Z,95767.19
2023-06-11T12:53:05.537Z,95762.03
2023-06-11T12:55:09.137Z,95768.41
2023-06-11T12:57:12.663Z,95761.13
2023-06-11T12:59:16.362Z,95761.16
2023-06-11T13:01:19.354Z,95758.22
2023-06-11T13:03:23.435Z,95759.75
2023-06-11T13:05:26.191Z,95764.19
2023-06-11T13:07:28.950Z,95758.53
2023-06-11T13:09:31.802Z,95752.75
2023-06-11T13:11:34.517Z,95756.09
2023-06-11T13:13:37.251Z,95754.66
2023-06-11T13:15:41.273Z,95748.94
2023-06-11T13:17:44.020Z,95755.81
2023-06-11T13:19:48.179Z,95741.81
2023-06-11T13:21:50.962Z,95750.09
2023-06-11T13:23:53.712Z,95750.06
2023-06-11T13:25:56.418Z,95739.91
2023-06-11T13:27:59.275Z,95741.63
2023-06-11T13:30:02.574Z,95735.81
2023-06-11T13:32:05.947Z,95744.81
2023-06-11T13:34:09.288Z,95743.41
2023-06-11T13:36:13.493Z,95740.22
2023-06-11T13:38:16.195Z,95741.53
2023-06-11T13:40:19.982Z,95741.84
2023-06-11T13:42:22.793Z,95740.28
2023-06-11T13:44:25.653Z,95745.66
2023-06-11T13:46:28.576Z,95735.13
2023-06-11T13:48:31.291Z,95737.66
2023-06-11T13:50:34.645Z,95729.69
2023-06-11T13:52:38.683Z,95731.75
2023-06-11T13:54:43.542Z,95733.44
2023-06-11T13:56:46.720Z,95717.06
2023-06-11T13:58:49.926Z,95727.28
2023-06-11T14:00:54.704Z,95721.03
2023-06-11T14:02:58.476Z,95718.50
2023-06-11T14:05:01.257Z,95725.94
2023-06-11T14:07:04.986Z,95712.91
2023-06-11T14:09:09.460Z,95708.22
2023-06-11T14:11:14.454Z,95717.34
2023-06-11T14:13:17.305Z,95721.50
2023-06-11T14:15:20.227Z,95713.06
2023-06-11T14:17:23.012Z,95712.00
2023-06-11T14:19:25.777Z,95707.22
2023-06-11T14:21:28.611Z,95715.84
2023-06-11T14:23:31.326Z,95709.44
2023-06-11T14:25:35.410Z,95715.88
2023-06-11T14:27:38.522Z,95699.00
2023-06-11T14:29:41.263Z,95703.56
2023-06-11T14:31:44.881Z,95702.75
2023-06-11T14:33:48.308Z,95694.13
2023-06-11T14:35:51.677Z,95704.56
2023-06-11T14:37:58.147Z,95704.38
2023-06-11T14:40:02.186Z,95703.47
2023-06-11T14:42:08.128Z,95699.47
2023-06-11T14:44:10.916Z,95693.66
2023-06-11T14:46:13.744Z,95691.59
2023-06-11T14:48:16.596Z,95687.88
2023-06-11T14:50:19.407Z,95687.50
2023-06-11T14:52:23.211Z,95690.78
2023-06-11T14:54:26.115Z,95689.16
2023-06-11T14:56:28.857Z,95686.78
2023-06-11T14:58:32.923Z,95684.28
2023-06-11T15:00:35.746Z,95696.25
2023-06-11T15:02:38.500Z,95686.72
2023-06-11T15:04:41.306Z,95684.34
2023-06-11T15:06:44.064Z,95688.97
2023-06-11T15:08:46.837Z,95673.50
2023-06-11T15:10:49.611Z,95674.78
2023-06-11T15:12:53.454Z,95683.94
2023-06-11T15:14:57.654Z,95680.13
2023-06-11T15:17:00.467Z,95673.50
2023-06-11T15:19:03.229Z,95676.94
2023-06-11T15:21:06.062Z,95682.59
2023-06-11T15:23:11.172Z,95668.41
2023-06-11T15:25:14.347Z,95671.13
2023-06-11T15:27:18.357Z,95673.03
2023-06-11T15:29:21.268Z,95672.88
2023-06-11T15:31:25.385Z,95669.50
2023-06-11T15:33:28.201Z,95665.94
2023-06-11T15:35:30.960Z,95667.44
2023-06-11T15:37:34.019Z,95672.53
2023-06-11T15:39:36.849Z,95665.50
2023-06-11T15:41:40.096Z,95665.66
2023-06-11T15:43:43.030Z,95666.03
2023-06-11T15:45:50.412Z,95668.63
2023-06-11T15:47:54.694Z,95676.31
2023-06-11T15:49:57.562Z,95668.78
2023-06-11T15:52:00.676Z,95674.94
2023-06-11T15:54:04.174Z,95674.75
2023-06-11T15:56:07.069Z,95676.78
2023-06-11T15:58:11.905Z,95674.47
2023-06-11T16:00:15.901Z,95678.72
2023-06-11T16:02:18.699Z,95677.34
2023-06-11T16:04:24.088Z,95677.16
2023-06-11T16:06:27.105Z,95672.44
2023-06-11T16:08:29.855Z,95675.94
2023-06-11T16:10:32.667Z,95670.78
2023-06-11T16:12:35.478Z,95677.25
2023-06-11T16:14:38.261Z,95672.38
2023-06-11T16:16:41.064Z,95674.38
2023-06-11T16:18:44.001Z,95676.09
2023-06-11T16:20:48.113Z,95682.16
2023-06-11T16:22:51.124Z,95671.78
2023-06-11T16:24:53.858Z,95676.16
2023-06-11T16:26:56.646Z,95669.69
2023-06-11T16:28:59.562Z,95666.78
2023-06-11T16:31:02.638Z,95677.88
2023-06-11T16:33:05.491Z,95676.03
2023-06-11T16:35:08.993Z,95678.41
2023-06-11T16:37:13.402Z,95665.44
2023-06-11T16:39:25.550Z,95678.56
2023-06-11T16:41:30.242Z,95669.16
2023-06-11T16:43:33.066Z,95676.91
2023-06-11T16:45:35.968Z,95667.19
2023-06-11T16:47:38.751Z,95674.47
2023-06-11T16:49:41.528Z,95664.88
2023-06-11T16:51:44.385Z,95660.72
2023-06-11T16:53:50.745Z,95665.84
2023-06-11T16:55:53.475Z,95663.09
2023-06-11T16:57:58.137Z,95667.31
2023-06-11T17:00:02.222Z,95667.34
2023-06-11T17:02:05.500Z,95657.94
2023-06-11T17:04:08.449Z,95662.09
2023-06-11T17:06:11.332Z,95663.38
2023-06-11T17:08:14.376Z,95656.09
2023-06-11T17:10:19.135Z,95656.53
2023-06-11T17:12:22.036Z,95658.19
2023-06-11T17:14:24.884Z,95650.47
2023-06-11T17:16:27.859Z,95646.84
2023-06-11T17:18:30.654Z,95640.06
2023-06-11T17:20:35.039Z,95639.84
2023-06-11T17:22:39.024Z,95646.53
2023-06-11T17:24:41.926Z,95647.91
2023-06-11T17:26:46.009Z,95642.84
2023-06-11T17:28:49.118Z,95637.97
2023-06-11T17:30:52.216Z,95637.75
2023-06-11T17:32:55.048Z,95639.41
2023-06-11T17:34:58.102Z,95641.53
2023-06-11T17:37:00.893Z,95644.41
2023-06-11T17:39:03.726Z,95643.03
2023-06-11T17:41:06.529Z,95648.78
2023-06-11T17:43:10.738Z,95649.53
2023-06-11T17:45:13.738Z,95650.31
2023-06-11T17:47:16.641Z,95648.72
2023-06-11T17:49:19.449Z,95652.78
2023-06-11T17:51:22.196Z,95646.06
2023-06-11T17:53:24.926Z,95651.88
2023-06-11T17:55:27.792Z,95645.16
2023-06-11T17:57:30.581Z,95648.53
2023-06-11T17:59:34.729Z,95652.63
2023-06-11T18:01:38.378Z,95641.44
2023-06-11T18:03:41.193Z,95637.88
2023-06-11T18:05:44.057Z,95653.28
2023-06-11T18:07:47.403Z,95648.28
2023-06-11T18:09:50.536Z,95652.75
2023-06-11T18:11:53.471Z,95656.34
2023-06-11T18:13:56.256Z,95661.91
2023-06-11T18:16:00.665Z,95659.69
2023-06-11T18:18:04.342Z,95666.75
2023-06-11T18:20:09.839Z,95657.59
2023-06-11T18:22:12.638Z,95661.16
2023-06-11T18:24:15.528Z,95665.94
2023-06-11T18:26:18.522Z,95669.53
2023-06-11T18:28:21.372Z,95669.91
2023-06-11T18:30:24.499Z,95666.34
2023-06-11T18:32:28.718Z,95661.16
2023-06-11T18:34:31.505Z,95676.53
2023-06-11T18:36:34.705Z,95670.09
2023-06-11T18:38:37.667Z,95667.44
2023-06-11T18:40:40.538Z,95673.47
2023-06-11T18:42:43.451Z,95679.31
2023-06-11T18:44:46.668Z,95675.75
2023-06-11T18:46:49.514Z,95667.25
2023-06-11T18:48:53.625Z,95675.38
2023-06-11T18:50:56.407Z,95676.56
2023-06-11T18:52:59.224Z,95678.16
2023-06-11T18:55:02.054Z,95682.47
2023-06-11T18:57:09.223Z,95685.91
2023-06-11T18:59:12.045Z,95683.97
2023-06-11T19:01:14.885Z,95692.25
2023-06-11T19:03:17.919Z,95695.75
2023-06-11T19:05:22.327Z,95693.56
2023-06-11T19:07:25.285Z,95701.63
2023-06-11T19:09:28.080Z,95700.84
2023-06-11T19:11:30.955Z,95695.56
2023-06-11T19:13:33.956Z,95692.94
2023-06-11T19:15:36.761Z,95692.50
2023-06-11T19:17:39.688Z,95691.78
2023-06-11T19:19:42.513Z,95699.06
2023-06-11T19:21:47.773Z,95693.53
2023-06-11T19:23:50.714Z,95703.94
2023-06-11T19:25:55.539Z,95705.72
2023-06-11T19:27:58.349Z,95701.72
2023-06-11T19:30:01.170Z,95710.53
2023-06-11T19:32:04.663Z,95706.75
2023-06-11T19:34:07.911Z,95711.88
2023-06-11T19:36:10.844Z,95707.41
2023-06-11T19:38:15.076Z,95715.56
2023-06-11T19:40:17.946Z,95712.72
2023-06-11T19:42:20.725Z,95715.38
2023-06-11T19:44:23.545Z,95712.63
2023-06-11T19:46:30.025Z,95719.81
2023-06-11T19:48:34.541Z,95717.28
2023-06-11T19:50:37.390Z,95719.56
2023-06-11T19:52:40.336Z,95714.44
2023-06-11T19:54:51.369Z,95720.38
2023-06-11T19:56:54.807Z,95726.44
2023-06-11T19:58:57.755Z,95723.13
2023-06-11T20:01:00.775Z,95726.66
2023-06-11T20:03:03.587Z,95714.88
2023-06-11T20:05:07.614Z,95727.59
2023-06-11T20:07:10.658Z,95731.00
2023-06-11T20:09:13.757Z,95726.56
2023-06-11T20:11:19.167Z,95735.88
2023-06-11T20:13:21.947Z,95726.03
2023-06-11T20:15:24.745Z,95725.03
2023-06-11T20:17:27.576Z,95740.59
2023-06-11T20:19:30.853Z,95733.53
2023-06-11T20:21:33.649Z,95741.06
2023-06-11T20:23:36.960Z,95734.78
2023-06-11T20:25:39.711Z,95738.47
2023-06-11T20:27:43.989Z,95747.41
2023-06-11T20:29:46.902Z,95749.78
2023-06-11T20:31:49.762Z,95752.53
2023-06-11T20:33:53.008Z,95746.13
2023-06-11T20:35:55.771Z,95755.59
2023-06-11T20:37:58.556Z,95749.28
2023-06-11T20:40:01.345Z,95759.16
2023-06-11T20:42:04.630Z,95754.25
2023-06-11T20:44:08.834Z,95749.00
2023-06-11T20:46:27.444Z,95756.00
2023-06-11T20:48:31.276Z,95748.66
2023-06-11T20:50:34.248Z,95721.91
2023-06-11T20:52:37.091Z,95751.50
2023-06-11T20:54:39.890Z,95748.19
2023-06-11T20:56:42.758Z,95747.50
2023-06-11T20:58:45.558Z,95747.72
2023-06-11T21:00:49.783Z,95740.16
2023-06-11T21:02:52.689Z,95741.88
2023-06-11T21:04:55.595Z,95746.28
2023-06-11T21:06:58.413Z,95722.22
2023-06-11T21:09:01.388Z,95741.03
2023-06-11T21:11:04.241Z,95743.81
2023-06-11T21:13:07.040Z,95743.53
2023-06-11T21:15:10.449Z,95729.44
2023-06-11T21:17:14.677Z,95735.06
2023-06-11T21:19:17.606Z,95739.59
2023-06-11T21:21:20.514Z,95744.06
2023-06-11T21:23:23.336Z,95735.34
2023-06-11T21:25:26.115Z,95735.06
2023-06-11T21:27:28.942Z,95726.00
2023-06-11T21:29:31.796Z,95712.50
2023-06-11T21:31:34.683Z,95743.91
2023-06-11T21:33:38.820Z,95746.16
2023-06-11T21:35:41.710Z,95737.16
2023-06-11T21:37:44.544Z,95738.72
2023-06-11T21:39:47.380Z,95746.06
2023-06-11T21:41:51.703Z,95748.44
2023-06-11T21:43:56.214Z,95733.22
2023-06-11T21:45:59.744Z,95751.25
2023-06-11T21:48:02.620Z,95740.22
2023-06-11T21:50:07.807Z,95745.38
2023-06-11T21:52:17.891Z,95733.84
2023-06-11T21:54:20.843Z,95740.38
2023-06-11T21:56:23.682Z,95735.56
2023-06-11T21:58:26.497Z,95733.97
2023-06-11T22:00:29.353Z,95744.72
2023-06-11T22:02:32.328Z,95741.97
2023-06-11T22:04:35.164Z,95734.66
2023-06-11T22:06:42.911Z,95726.19
2023-06-11T22:08:45.808Z,95716.00
2023-06-11T22:10:48.625Z,95731.44
2023-06-11T22:12:51.375Z,95729.03
2023-06-11T22:14:54.625Z,95722.53
2023-06-11T22:16:58.908Z,95722.63
2023-06-11T22:19:04.108Z,95728.91
2023-06-11T22:21:07.674Z,95722.97
2023-06-11T22:23:12.018Z,95722.50
2023-06-11T22:25:15.050Z,95717.94
2023-06-11T22:27:17.936Z,95726.09
2023-06-11T22:29:20.896Z,95729.31
2023-06-11T22:31:24.339Z,95732.41
2023-06-11T22:33:27.200Z,95741.97
2023-06-11T22:35:30.057Z,95742.06
2023-06-11T22:37:33.870Z,95744.09
2023-06-11T22:39:38.007Z,95742.94
2023-06-11T22:41:40.823Z,95740.63
2023-06-11T22:43:43.676Z,95730.03
2023-06-11T22:45:46.518Z,95728.13
2023-06-11T22:47:54.632Z,95729.50
2023-06-11T22:49:57.817Z,95726.94
2023-06-11T22:52:01.230Z,95738.16
2023-06-11T22:54:04.958Z,95731.78
2023-06-11T22:56:09.205Z,95730.56
2023-06-11T22:58:12.042Z,95734.50
2023-06-11T23:00:16.973Z,95734.06
2023-06-11T23:02:20.386Z,95734.38
2023-06-11T23:04:23.505Z,95734.25
2023-06-11T23:06:27.957Z,95736.09
2023-06-11T23:08:30.942Z,95728.03
2023-06-11T23:10:33.818Z,95728.34
2023-06-11T23:12:37.992Z,95711.84
2023-06-11T23:14:41.136Z,95725.59
2023-06-11T23:16:49.161Z,95731.88
2023-06-11T23:18:54.550Z,95729.34
2023-06-11T23:20:57.711Z,95729.97
2023-06-11T23:23:03.414Z,95730.16
2023-06-11T23:25:07.981Z,95716.13
2023-06-11T23:27:13.297Z,95731.44
2023-06-11T23:29:19.653Z,95733.75
2023-06-11T23:31:22.816Z,95731.94
2023-06-11T23:33:25.805Z,95724.09
2023-06-11T23:35:28.608Z,95726.25
2023-06-11T23:37:31.617Z,95724.63
2023-06-11T23:39:34.494Z,95725.59
2023-06-11T23:41:37.479Z,95720.00
2023-06-11T23:43:40.609Z,95719.69
2023-06-11T23:45:44.994Z,95727.06
2023-06-11T23:47:47.944Z,95722.56
2023-06-11T23:49:50.747Z,95716.19
2023-06-11T23:51:53.833Z,95712.38
2023-06-11T23:53:56.724Z,95718.06
2023-06-11T23:56:01.391Z,95706.97
2023-06-11T23:58:18.169Z,95710.84
